Jonni Ritscher — A8JT7 — position and weather

sailwx.info

Track history (hours):
 
Tides and Currents Weather Stations Pressure Air Temp Water Temp Dewpoint Dewpoint Depression Visibility Wind Speed Wind Dir Waves Ship Positions

Jonni Ritscher

Last reported at 2014-Dec-19 19:33 UTC. Time now 2014-Dec-19 20:12 UTC.
Position N 54°10' E 007°37'.

Length 178 m; draft 7.8 m.

Type: Ship. MMSI: 636091136.

Date/timePositionNaut miles runAvg speedWind from/ knotsBaromVisibWave heightAir tempDewpointWater temp
2014-Dec-19 19:33N 54°10' E 007°37'1110.5
2014-Dec-19 18:33N 53°60' E 007°40'4317.4
2014-Dec-19 16:04N 53°46' E 006°30'1019.2
2014-Dec-19 15:33N 53°44' E 006°14'1919.0
2014-Dec-19 14:33N 53°37' E 005°44'1919.3
2014-Dec-19 13:33N 53°31' E 005°13'1919.1
2014-Dec-19 12:33N 53°24' E 004°44'3818.0
2014-Dec-19 10:27N 52°51' E 004°14'2017.4
2014-Dec-19 09:17N 52°33' E 003°57'1216.5
2014-Dec-19 08:33N 52°21' E 003°52'1616.3
2014-Dec-19 07:33N 52°05' E 003°55'9 8.8
2014-Dec-19 06:33N 51°59' E 004°05'2 2.3
2014-Dec-19 05:33N 51°57' E 004°03'0 0.0
2014-Dec-19 04:33N 51°57' E 004°03'0 0.0
2014-Dec-19 03:32N 51°57' E 004°03'0 0.0
2014-Dec-19 02:32N 51°57' E 004°03'0 0.0
2014-Dec-19 01:31N 51°57' E 004°03'0 0.0
2014-Dec-19 00:31N 51°57' E 004°03'0 0.0
2014-Dec-18 23:31N 51°57' E 004°03'0 0.0
2014-Dec-18 22:30N 51°57' E 004°03'0 0.0
2014-Dec-18 21:33N 51°57' E 004°03'0 0.0
2014-Dec-18 20:32N 51°57' E 004°03'0 0.0
2014-Dec-18 19:32N 51°57' E 004°03'0 0.0
2014-Dec-18 18:31N 51°57' E 004°03'0 0.0
2014-Dec-18 17:31N 51°57' E 004°03'0 0.0
2014-Dec-18 16:34N 51°57' E 004°03'0 0.0
2014-Dec-18 15:33N 51°57' E 004°03'0 0.0
2014-Dec-18 14:33N 51°57' E 004°03'0 0.3
2014-Dec-18 13:34N 51°57' E 004°03'4 3.6
2014-Dec-18 12:34N 51°60' E 004°00'9 8.8
2014-Dec-18 11:33N 51°59' E 003°46'8 7.6
2014-Dec-18 10:30N 51°56' E 003°34'2 1.3
2014-Dec-18 09:15N 51°54' E 003°33'0 0.0
2014-Dec-18 08:26N 51°54' E 003°33'0 0.0
2014-Dec-18 07:32N 51°54' E 003°33'0 0.1
2014-Dec-18 06:31N 51°54' E 003°33'0 0.0
2014-Dec-18 05:22N 51°54' E 003°33'0 0.1
2014-Dec-18 04:34N 51°54' E 003°33'0 0.0
2014-Dec-18 03:09N 51°54' E 003°33'0 0.0
2014-Dec-18 00:08N 51°54' E 003°33'0 0.0
2014-Dec-17 23:31N 51°54' E 003°33'0 0.0
2014-Dec-17 22:31N 51°54' E 003°33'3 3.5
2014-Dec-17 21:33N 51°53' E 003°28'1716.7
2014-Dec-17 20:33N 51°51' E 003°01'1716.8
2014-Dec-17 19:32N 51°38' E 002°43'1615.9
2014-Dec-17 18:33N 51°22' E 002°46'1414.3
2014-Dec-17 17:34N 51°24' E 003°08'4 4.1
2014-Dec-17 16:33N 51°20' E 003°12'0 0.0
2014-Dec-17 15:32N 51°20' E 003°12'0 0.0
2014-Dec-17 14:32N 51°20' E 003°12'0 0.0
2014-Dec-17 13:31N 51°20' E 003°12'0 0.0
2014-Dec-17 12:31N 51°20' E 003°12'0 0.0
2014-Dec-17 11:34N 51°20' E 003°12'4 3.9
2014-Dec-17 10:33N 51°23' E 003°09'1414.4
2014-Dec-17 09:34N 51°21' E 002°46'1212.3
2014-Dec-17 08:33N 51°34' E 002°42'1918.6
2014-Dec-17 07:33N 51°52' E 002°44'1615.6
2014-Dec-17 06:32N 52°07' E 002°53'1615.9
2014-Dec-17 05:33N 52°20' E 003°09'1615.9
2014-Dec-17 04:33N 52°33' E 003°24'1616.2
2014-Dec-17 03:33N 52°45' E 003°41'1616.0
2014-Dec-17 02:33N 52°57' E 003°59'1515.4
2014-Dec-17 01:33N 53°07' E 004°18'1514.6
2014-Dec-17 00:33N 53°20' E 004°30'1515.3
2014-Dec-16 23:33N 53°34' E 004°38'1715.8
2014-Dec-16 22:30N 53°50' E 004°46'1516.1
2014-Dec-16 21:33N 54°04' E 004°55'1616.3
2014-Dec-16 20:33N 54°18' E 005°11'6516.0
2014-Dec-16 16:29N 55°12' E 006°14'1516.1
2014-Dec-16 15:33N 55°24' E 006°28'1716.2
2014-Dec-16 14:31N 55°39' E 006°42'9616.1
2014-Dec-16 08:33N 57°03' E 008°08'8914.3
2014-Dec-16 02:21N 57°50' E 010°28'1114.0
2014-Dec-16 01:33N 57°47' E 010°48'1716.9
2014-Dec-16 00:33N 57°36' E 011°11'1615.6
2014-Dec-15 23:33N 57°24' E 011°30'1616.4
2014-Dec-15 22:33N 57°08' E 011°39'1716.6
2014-Dec-15 21:33N 56°53' E 011°50'1615.6
2014-Dec-15 20:33N 56°37' E 011°46'12713.7
2014-Dec-15 11:15N 54°31' E 011°30'1615.7
2014-Dec-15 10:13N 54°26' E 011°57'1513.9
2014-Dec-15 09:07N 54°36' E 012°16'916.3
2014-Dec-15 08:33N 54°41' E 012°30'1616.2
2014-Dec-15 07:33N 54°49' E 012°54'1611.6
2014-Dec-15 06:08N 54°59' E 013°18'2 1.9
2014-Dec-15 05:14N 54°57' E 013°17'4 2.2
2014-Dec-15 03:29N 54°54' E 013°13'8 9.0
2014-Dec-15 02:32N 54°56' E 013°28'1514.8
2014-Dec-15 01:33N 55°01' E 013°51'1413.9
2014-Dec-15 00:33N 55°10' E 014°10'1515.1
2014-Dec-14 23:34N 55°21' E 014°27'1515.1
2014-Dec-14 22:33N 55°31' E 014°47'1615.6
2014-Dec-14 21:33N 55°38' E 015°12'34815.6
2014-Dec-13 23:15N 59°36' E 023°07'1116.6
2014-Dec-13 22:34N 59°40' E 023°29'1716.6
2014-Dec-13 21:33N 59°44' E 024°00'1616.4
2014-Dec-13 20:34N 59°48' E 024°32'4916.1
2014-Dec-13 17:29N 59°58' E 026°08'1515.4
2014-Dec-13 16:31N 60°01' E 026°38'10113.6
2014-Dec-13 09:03N 59°55' E 029°59'510.2
2014-Dec-13 08:33N 59°54' E 030°09'2 2.3
2014-Dec-13 07:33N 59°53' E 030°13'0 0.0
2014-Dec-13 06:33N 59°53' E 030°13'0 0.0
2014-Dec-13 04:22N 59°53' E 030°13'0 0.0
2014-Dec-13 03:28N 59°53' E 030°13'0 0.0
2014-Dec-13 02:27N 59°53' E 030°13'0 0.0
2014-Dec-13 01:33N 59°53' E 030°13'0 0.0
2014-Dec-13 00:26N 59°53' E 030°13'0 0.0
2014-Dec-12 23:32N 59°53' E 030°13'0 0.0
2014-Dec-12 22:25N 59°53' E 030°13'0 0.0
2014-Dec-12 21:31N 59°53' E 030°13'0 0.0
2014-Dec-12 20:31N 59°53' E 030°13'0 0.0
2014-Dec-12 19:30N 59°53' E 030°13'0 0.0
2014-Dec-12 18:24N 59°53' E 030°13'0 0.1
2014-Dec-12 17:29N 59°53' E 030°14'0 0.1
2014-Dec-12 16:29N 59°53' E 030°13'0 0.0
2014-Dec-12 15:28N 59°53' E 030°13'0 0.1
2014-Dec-12 14:28N 59°53' E 030°14'0 0.1
2014-Dec-12 13:28N 59°53' E 030°13'0 0.0
2014-Dec-12 12:33N 59°53' E 030°13'0 0.0
2014-Dec-12 11:27N 59°53' E 030°13'0 0.0
2014-Dec-12 10:32N 59°53' E 030°13'0 0.0
2014-Dec-12 09:32N 59°53' E 030°13'1 1.3
2014-Dec-12 08:33N 59°53' E 030°11'0 0.1
2014-Dec-12 07:33N 59°53' E 030°11'0 0.0
2014-Dec-12 06:33N 59°53' E 030°11'0 0.0
2014-Dec-12 05:32N 59°53' E 030°11'0 0.0
2014-Dec-12 04:32N 59°53' E 030°11'0 0.0
2014-Dec-12 03:31N 59°53' E 030°11'0 0.1
2014-Dec-12 02:31N 59°53' E 030°12'0 0.1
2014-Dec-12 01:33N 59°53' E 030°11'0 0.0
2014-Dec-12 00:33N 59°53' E 030°11'0 0.0
2014-Dec-11 23:33N 59°53' E 030°11'0 0.0
2014-Dec-11 22:32N 59°53' E 030°11'0 0.0
2014-Dec-11 21:32N 59°53' E 030°11'0 0.0
2014-Dec-11 20:31N 59°53' E 030°11'0 0.0
2014-Dec-11 19:31N 59°53' E 030°11'0 0.1
2014-Dec-11 18:33N 59°53' E 030°12'0 0.1
2014-Dec-11 17:33N 59°53' E 030°11'0 0.1
2014-Dec-11 16:33N 59°53' E 030°12'0 0.0
2014-Dec-11 15:32N 59°53' E 030°12'0 0.1
2014-Dec-11 14:32N 59°53' E 030°11'5 5.0
2014-Dec-11 13:33N 59°55' E 030°02'85 2.7
2014-Dec-10 06:33N 60°01' E 027°13'1514.6
2014-Dec-10 05:33N 59°59' E 026°44'6817.0
2014-Dec-10 01:33N 59°44' E 024°32'1717.3
2014-Dec-10 00:33N 59°40' E 023°59'1717.4
2014-Dec-09 23:33N 59°34' E 023°26'  
Track history (hours):
 
Tides and Currents Weather Stations Pressure Air Temp Water Temp Dewpoint Dewpoint Depression Visibility Wind Speed Wind Dir Waves Ship Positions

Jonni Ritscher

Last reported at 2014-Dec-19 19:33 UTC. Time now 2014-Dec-19 20:12 UTC.
Position N 54°10' E 007°37'.

Length 178 m; draft 7.8 m.

Type: Ship. MMSI: 636091136.

Date/timePositionNaut miles runAvg speedWind from/ knotsBaromVisibWave heightAir tempDewpointWater temp
2014-Dec-19 19:33N 54°10' E 007°37'1110.5
2014-Dec-19 18:33N 53°60' E 007°40'4317.4
2014-Dec-19 16:04N 53°46' E 006°30'1019.2
2014-Dec-19 15:33N 53°44' E 006°14'1919.0
2014-Dec-19 14:33N 53°37' E 005°44'1919.3
2014-Dec-19 13:33N 53°31' E 005°13'1919.1
2014-Dec-19 12:33N 53°24' E 004°44'3818.0
2014-Dec-19 10:27N 52°51' E 004°14'2017.4
2014-Dec-19 09:17N 52°33' E 003°57'1216.5
2014-Dec-19 08:33N 52°21' E 003°52'1616.3
2014-Dec-19 07:33N 52°05' E 003°55'9 8.8
2014-Dec-19 06:33N 51°59' E 004°05'2 2.3
2014-Dec-19 05:33N 51°57' E 004°03'0 0.0
2014-Dec-19 04:33N 51°57' E 004°03'0 0.0
2014-Dec-19 03:32N 51°57' E 004°03'0 0.0
2014-Dec-19 02:32N 51°57' E 004°03'0 0.0
2014-Dec-19 01:31N 51°57' E 004°03'0 0.0
2014-Dec-19 00:31N 51°57' E 004°03'0 0.0
2014-Dec-18 23:31N 51°57' E 004°03'0 0.0
2014-Dec-18 22:30N 51°57' E 004°03'0 0.0
2014-Dec-18 21:33N 51°57' E 004°03'0 0.0
2014-Dec-18 20:32N 51°57' E 004°03'0 0.0
2014-Dec-18 19:32N 51°57' E 004°03'0 0.0
2014-Dec-18 18:31N 51°57' E 004°03'0 0.0
2014-Dec-18 17:31N 51°57' E 004°03'0 0.0
2014-Dec-18 16:34N 51°57' E 004°03'0 0.0
2014-Dec-18 15:33N 51°57' E 004°03'0 0.0
2014-Dec-18 14:33N 51°57' E 004°03'0 0.3
2014-Dec-18 13:34N 51°57' E 004°03'4 3.6
2014-Dec-18 12:34N 51°60' E 004°00'9 8.8
2014-Dec-18 11:33N 51°59' E 003°46'8 7.6
2014-Dec-18 10:30N 51°56' E 003°34'2 1.3
2014-Dec-18 09:15N 51°54' E 003°33'0 0.0
2014-Dec-18 08:26N 51°54' E 003°33'0 0.0
2014-Dec-18 07:32N 51°54' E 003°33'0 0.1
2014-Dec-18 06:31N 51°54' E 003°33'0 0.0
2014-Dec-18 05:22N 51°54' E 003°33'0 0.1
2014-Dec-18 04:34N 51°54' E 003°33'0 0.0
2014-Dec-18 03:09N 51°54' E 003°33'0 0.0
2014-Dec-18 00:08N 51°54' E 003°33'0 0.0
2014-Dec-17 23:31N 51°54' E 003°33'0 0.0
2014-Dec-17 22:31N 51°54' E 003°33'3 3.5
2014-Dec-17 21:33N 51°53' E 003°28'1716.7
2014-Dec-17 20:33N 51°51' E 003°01'1716.8
2014-Dec-17 19:32N 51°38' E 002°43'1615.9
2014-Dec-17 18:33N 51°22' E 002°46'1414.3
2014-Dec-17 17:34N 51°24' E 003°08'4 4.1
2014-Dec-17 16:33N 51°20' E 003°12'0 0.0
2014-Dec-17 15:32N 51°20' E 003°12'0 0.0
2014-Dec-17 14:32N 51°20' E 003°12'0 0.0
2014-Dec-17 13:31N 51°20' E 003°12'0 0.0
2014-Dec-17 12:31N 51°20' E 003°12'0 0.0
2014-Dec-17 11:34N 51°20' E 003°12'4 3.9
2014-Dec-17 10:33N 51°23' E 003°09'1414.4
2014-Dec-17 09:34N 51°21' E 002°46'1212.3
2014-Dec-17 08:33N 51°34' E 002°42'1918.6
2014-Dec-17 07:33N 51°52' E 002°44'1615.6
2014-Dec-17 06:32N 52°07' E 002°53'1615.9
2014-Dec-17 05:33N 52°20' E 003°09'1615.9
2014-Dec-17 04:33N 52°33' E 003°24'1616.2
2014-Dec-17 03:33N 52°45' E 003°41'1616.0
2014-Dec-17 02:33N 52°57' E 003°59'1515.4
2014-Dec-17 01:33N 53°07' E 004°18'1514.6
2014-Dec-17 00:33N 53°20' E 004°30'1515.3
2014-Dec-16 23:33N 53°34' E 004°38'1715.8
2014-Dec-16 22:30N 53°50' E 004°46'1516.1
2014-Dec-16 21:33N 54°04' E 004°55'1616.3
2014-Dec-16 20:33N 54°18' E 005°11'6516.0
2014-Dec-16 16:29N 55°12' E 006°14'1516.1
2014-Dec-16 15:33N 55°24' E 006°28'1716.2
2014-Dec-16 14:31N 55°39' E 006°42'9616.1
2014-Dec-16 08:33N 57°03' E 008°08'8914.3
2014-Dec-16 02:21N 57°50' E 010°28'1114.0
2014-Dec-16 01:33N 57°47' E 010°48'1716.9
2014-Dec-16 00:33N 57°36' E 011°11'1615.6
2014-Dec-15 23:33N 57°24' E 011°30'1616.4
2014-Dec-15 22:33N 57°08' E 011°39'1716.6
2014-Dec-15 21:33N 56°53' E 011°50'1615.6
2014-Dec-15 20:33N 56°37' E 011°46'12713.7
2014-Dec-15 11:15N 54°31' E 011°30'1615.7
2014-Dec-15 10:13N 54°26' E 011°57'1513.9
2014-Dec-15 09:07N 54°36' E 012°16'916.3
2014-Dec-15 08:33N 54°41' E 012°30'1616.2
2014-Dec-15 07:33N 54°49' E 012°54'1611.6
2014-Dec-15 06:08N 54°59' E 013°18'2 1.9
2014-Dec-15 05:14N 54°57' E 013°17'4 2.2
2014-Dec-15 03:29N 54°54' E 013°13'8 9.0
2014-Dec-15 02:32N 54°56' E 013°28'1514.8
2014-Dec-15 01:33N 55°01' E 013°51'1413.9
2014-Dec-15 00:33N 55°10' E 014°10'1515.1
2014-Dec-14 23:34N 55°21' E 014°27'1515.1
2014-Dec-14 22:33N 55°31' E 014°47'1615.6
2014-Dec-14 21:33N 55°38' E 015°12'34815.6
2014-Dec-13 23:15N 59°36' E 023°07'1116.6
2014-Dec-13 22:34N 59°40' E 023°29'1716.6
2014-Dec-13 21:33N 59°44' E 024°00'1616.4
2014-Dec-13 20:34N 59°48' E 024°32'4916.1
2014-Dec-13 17:29N 59°58' E 026°08'1515.4
2014-Dec-13 16:31N 60°01' E 026°38'10113.6
2014-Dec-13 09:03N 59°55' E 029°59'510.2
2014-Dec-13 08:33N 59°54' E 030°09'2 2.3
2014-Dec-13 07:33N 59°53' E 030°13'0 0.0
2014-Dec-13 06:33N 59°53' E 030°13'0 0.0
2014-Dec-13 04:22N 59°53' E 030°13'0 0.0
2014-Dec-13 03:28N 59°53' E 030°13'0 0.0
2014-Dec-13 02:27N 59°53' E 030°13'0 0.0
2014-Dec-13 01:33N 59°53' E 030°13'0 0.0
2014-Dec-13 00:26N 59°53' E 030°13'0 0.0
2014-Dec-12 23:32N 59°53' E 030°13'0 0.0
2014-Dec-12 22:25N 59°53' E 030°13'0 0.0
2014-Dec-12 21:31N 59°53' E 030°13'0 0.0
2014-Dec-12 20:31N 59°53' E 030°13'0 0.0
2014-Dec-12 19:30N 59°53' E 030°13'0 0.0
2014-Dec-12 18:24N 59°53' E 030°13'0 0.1
2014-Dec-12 17:29N 59°53' E 030°14'0 0.1
2014-Dec-12 16:29N 59°53' E 030°13'0 0.0
2014-Dec-12 15:28N 59°53' E 030°13'0 0.1
2014-Dec-12 14:28N 59°53' E 030°14'0 0.1
2014-Dec-12 13:28N 59°53' E 030°13'0 0.0
2014-Dec-12 12:33N 59°53' E 030°13'0 0.0
2014-Dec-12 11:27N 59°53' E 030°13'0 0.0
2014-Dec-12 10:32N 59°53' E 030°13'0 0.0
2014-Dec-12 09:32N 59°53' E 030°13'1 1.3
2014-Dec-12 08:33N 59°53' E 030°11'0 0.1
2014-Dec-12 07:33N 59°53' E 030°11'0 0.0
2014-Dec-12 06:33N 59°53' E 030°11'0 0.0
2014-Dec-12 05:32N 59°53' E 030°11'0 0.0
2014-Dec-12 04:32N 59°53' E 030°11'0 0.0
2014-Dec-12 03:31N 59°53' E 030°11'0 0.1
2014-Dec-12 02:31N 59°53' E 030°12'0 0.1
2014-Dec-12 01:33N 59°53' E 030°11'0 0.0
2014-Dec-12 00:33N 59°53' E 030°11'0 0.0
2014-Dec-11 23:33N 59°53' E 030°11'0 0.0
2014-Dec-11 22:32N 59°53' E 030°11'0 0.0
2014-Dec-11 21:32N 59°53' E 030°11'0 0.0
2014-Dec-11 20:31N 59°53' E 030°11'0 0.0
2014-Dec-11 19:31N 59°53' E 030°11'0 0.1
2014-Dec-11 18:33N 59°53' E 030°12'0 0.1
2014-Dec-11 17:33N 59°53' E 030°11'0 0.1
2014-Dec-11 16:33N 59°53' E 030°12'0 0.0
2014-Dec-11 15:32N 59°53' E 030°12'0 0.1
2014-Dec-11 14:32N 59°53' E 030°11'5 5.0
2014-Dec-11 13:33N 59°55' E 030°02'85 2.7
2014-Dec-10 06:33N 60°01' E 027°13'1514.6
2014-Dec-10 05:33N 59°59' E 026°44'6817.0
2014-Dec-10 01:33N 59°44' E 024°32'1717.3
2014-Dec-10 00:33N 59°40' E 023°59'1717.4
2014-Dec-09 23:33N 59°34' E 023°26'  

Dump ship's entire track history